Terminal Aerodrome Forecast
Issued by NWS Shreveport, LA

Home | Current Version | Previous Version | Text Only | Print | Product List | Glossary On
Versions: 1 2 3 4 5 6 7 8 9 10 11 12 13 14 15 16 17 18 19 20 21 22 23 24 25 26 27 28
942
FTUS44 KSHV 230327 AAA
TAFLFK
TAF AMD
KLFK 230327Z 2303/2324 01004KT P6SM OVC007
     FM230400 36003KT 3SM BR OVC005
      TEMPO 2308/2312 1SM BR OVC004
     FM231500 36005KT P6SM BKN015
     FM231800 34004KT P6SM BKN040
     FM232100 32005KT P6SM VCTS OVC040CB=

USA.gov is the U.S. government's official web portal to all federal, state and local government web resources and services.